sensor_id;sensor_type;location;lat;lon;timestamp;temperature;humidity
64961;SHT31;51487;52.266;10.542;2023-08-31T00:00:47;14.40;99.99
64961;SHT31;51487;52.266;10.542;2023-08-31T00:03:13;14.34;99.99
64961;SHT31;51487;52.266;10.542;2023-08-31T00:05:41;14.33;99.99
64961;SHT31;51487;52.266;10.542;2023-08-31T00:08:09;14.34;99.99
64961;SHT31;51487;52.266;10.542;2023-08-31T00:10:35;14.30;99.99
64961;SHT31;51487;52.266;10.542;2023-08-31T00:13:02;14.35;99.99
64961;SHT31;51487;52.266;10.542;2023-08-31T00:15:29;14.34;99.99
64961;SHT31;51487;52.266;10.542;2023-08-31T00:17:58;14.35;99.99
64961;SHT31;51487;52.266;10.542;2023-08-31T00:20:25;14.38;99.93
64961;SHT31;51487;52.266;10.542;2023-08-31T00:22:52;14.45;99.00
64961;SHT31;51487;52.266;10.542;2023-08-31T00:25:18;14.33;98.67
64961;SHT31;51487;52.266;10.542;2023-08-31T00:27:43;14.42;98.42
64961;SHT31;51487;52.266;10.542;2023-08-31T00:30:13;14.37;99.52
64961;SHT31;51487;52.266;10.542;2023-08-31T00:32:40;14.31;99.46
64961;SHT31;51487;52.266;10.542;2023-08-31T00:35:09;14.40;99.32
64961;SHT31;51487;52.266;10.542;2023-08-31T00:37:35;14.38;99.99
64961;SHT31;51487;52.266;10.542;2023-08-31T00:40:01;14.37;98.77
64961;SHT31;51487;52.266;10.542;2023-08-31T00:42:30;14.38;99.59
64961;SHT31;51487;52.266;10.542;2023-08-31T00:44:56;14.38;99.16
64961;SHT31;51487;52.266;10.542;2023-08-31T00:47:21;14.35;98.35
64961;SHT31;51487;52.266;10.542;2023-08-31T00:49:48;14.30;98.17
64961;SHT31;51487;52.266;10.542;2023-08-31T00:52:15;14.30;97.25
64961;SHT31;51487;52.266;10.542;2023-08-31T00:54:41;14.35;97.58
64961;SHT31;51487;52.266;10.542;2023-08-31T00:57:08;14.24;97.48
64961;SHT31;51487;52.266;10.542;2023-08-31T00:59:35;14.23;98.31
64961;SHT31;51487;52.266;10.542;2023-08-31T01:02:11;14.23;98.04
64961;SHT31;51487;52.266;10.542;2023-08-31T01:07:59;13.97;97.67
64961;SHT31;51487;52.266;10.542;2023-08-31T01:10:45;13.97;97.98
64961;SHT31;51487;52.266;10.542;2023-08-31T01:13:18;13.91;97.81
64961;SHT31;51487;52.266;10.542;2023-08-31T01:15:51;13.82;98.28
64961;SHT31;51487;52.266;10.542;2023-08-31T01:18:22;13.82;98.61
64961;SHT31;51487;52.266;10.542;2023-08-31T01:21:19;13.80;98.75
64961;SHT31;51487;52.266;10.542;2023-08-31T01:23:56;13.70;98.35
64961;SHT31;51487;52.266;10.542;2023-08-31T01:26:24;13.66;98.07
64961;SHT31;51487;52.266;10.542;2023-08-31T01:28:52;13.73;99.02
64961;SHT31;51487;52.266;10.542;2023-08-31T01:31:18;13.62;98.67
64961;SHT31;51487;52.266;10.542;2023-08-31T01:33:44;13.67;98.82
64961;SHT31;51487;52.266;10.542;2023-08-31T01:36:28;13.61;98.59
64961;SHT31;51487;52.266;10.542;2023-08-31T01:39:17;13.63;97.81
64961;SHT31;51487;52.266;10.542;2023-08-31T01:41:49;13.58;97.67
64961;SHT31;51487;52.266;10.542;2023-08-31T01:44:18;13.56;97.99
64961;SHT31;51487;52.266;10.542;2023-08-31T01:46:52;13.46;97.81
64961;SHT31;51487;52.266;10.542;2023-08-31T01:49:17;13.55;97.76
64961;SHT31;51487;52.266;10.542;2023-08-31T01:51:44;13.62;98.56
64961;SHT31;51487;52.266;10.542;2023-08-31T01:54:10;13.52;99.06
64961;SHT31;51487;52.266;10.542;2023-08-31T01:56:35;13.56;99.31
64961;SHT31;51487;52.266;10.542;2023-08-31T01:59:00;13.52;99.99
64961;SHT31;51487;52.266;10.542;2023-08-31T02:01:26;13.44;98.84
64961;SHT31;51487;52.266;10.542;2023-08-31T02:03:51;13.41;99.79
64961;SHT31;51487;52.266;10.542;2023-08-31T02:06:17;13.29;98.94
64961;SHT31;51487;52.266;10.542;2023-08-31T02:08:42;13.35;98.89
64961;SHT31;51487;52.266;10.542;2023-08-31T02:11:09;13.32;98.04
64961;SHT31;51487;52.266;10.542;2023-08-31T02:13:35;13.38;99.02
64961;SHT31;51487;52.266;10.542;2023-08-31T02:16:00;13.37;98.97
64961;SHT31;51487;52.266;10.542;2023-08-31T02:18:26;13.34;98.16
64961;SHT31;51487;52.266;10.542;2023-08-31T02:20:54;13.31;98.26
64961;SHT31;51487;52.266;10.542;2023-08-31T02:23:20;13.28;98.69
64961;SHT31;51487;52.266;10.542;2023-08-31T02:25:45;13.27;98.38
64961;SHT31;51487;52.266;10.542;2023-08-31T02:28:11;13.22;99.34
64961;SHT31;51487;52.266;10.542;2023-08-31T02:30:37;13.27;99.33
64961;SHT31;51487;52.266;10.542;2023-08-31T02:33:03;13.19;98.89
64961;SHT31;51487;52.266;10.542;2023-08-31T02:35:29;13.14;98.69
64961;SHT31;51487;52.266;10.542;2023-08-31T02:37:54;13.10;99.36
64961;SHT31;51487;52.266;10.542;2023-08-31T02:40:20;13.07;99.28
64961;SHT31;51487;52.266;10.542;2023-08-31T02:42:49;13.07;99.05
64961;SHT31;51487;52.266;10.542;2023-08-31T02:45:15;13.08;99.31
64961;SHT31;51487;52.266;10.542;2023-08-31T02:47:43;13.14;98.65
64961;SHT31;51487;52.266;10.542;2023-08-31T02:50:08;13.11;98.81
64961;SHT31;51487;52.266;10.542;2023-08-31T02:52:34;13.08;98.79
64961;SHT31;51487;52.266;10.542;2023-08-31T02:54:59;13.12;98.91
64961;SHT31;51487;52.266;10.542;2023-08-31T02:57:28;13.12;98.19
64961;SHT31;51487;52.266;10.542;2023-08-31T02:59:55;13.11;98.11
64961;SHT31;51487;52.266;10.542;2023-08-31T03:02:21;13.08;97.93
64961;SHT31;51487;52.266;10.542;2023-08-31T03:04:47;13.14;98.88
64961;SHT31;51487;52.266;10.542;2023-08-31T03:07:13;13.15;98.66
64961;SHT31;51487;52.266;10.542;2023-08-31T03:09:40;13.24;98.71
64961;SHT31;51487;52.266;10.542;2023-08-31T03:12:06;13.11;98.95
64961;SHT31;51487;52.266;10.542;2023-08-31T03:14:32;13.10;98.50
64961;SHT31;51487;52.266;10.542;2023-08-31T03:16:57;13.15;98.34
64961;SHT31;51487;52.266;10.542;2023-08-31T03:19:23;13.12;98.34
64961;SHT31;51487;52.266;10.542;2023-08-31T03:21:49;13.03;98.88
64961;SHT31;51487;52.266;10.542;2023-08-31T03:24:15;13.04;99.21
64961;SHT31;51487;52.266;10.542;2023-08-31T03:26:40;13.10;98.79
64961;SHT31;51487;52.266;10.542;2023-08-31T03:29:06;13.11;98.20
64961;SHT31;51487;52.266;10.542;2023-08-31T03:31:31;13.08;99.12
64961;SHT31;51487;52.266;10.542;2023-08-31T03:33:57;13.10;98.30
64961;SHT31;51487;52.266;10.542;2023-08-31T03:36:22;13.11;98.24
64961;SHT31;51487;52.266;10.542;2023-08-31T03:38:49;13.08;99.12
64961;SHT31;51487;52.266;10.542;2023-08-31T03:41:14;13.01;98.14
64961;SHT31;51487;52.266;10.542;2023-08-31T03:43:40;13.04;98.77
64961;SHT31;51487;52.266;10.542;2023-08-31T03:46:05;13.03;97.67
64961;SHT31;51487;52.266;10.542;2023-08-31T03:48:31;13.07;97.91
64961;SHT31;51487;52.266;10.542;2023-08-31T03:50:57;13.03;98.82
64961;SHT31;51487;52.266;10.542;2023-08-31T03:53:23;13.03;98.59
64961;SHT31;51487;52.266;10.542;2023-08-31T03:55:48;12.98;98.88
64961;SHT31;51487;52.266;10.542;2023-08-31T03:58:14;12.94;98.62
64961;SHT31;51487;52.266;10.542;2023-08-31T04:00:40;12.98;99.38
64961;SHT31;51487;52.266;10.542;2023-08-31T04:03:06;12.96;99.45
64961;SHT31;51487;52.266;10.542;2023-08-31T04:05:35;12.96;99.71
64961;SHT31;51487;52.266;10.542;2023-08-31T04:08:01;12.96;99.49
64961;SHT31;51487;52.266;10.542;2023-08-31T04:10:28;12.97;99.50
64961;SHT31;51487;52.266;10.542;2023-08-31T04:12:55;12.88;99.56
64961;SHT31;51487;52.266;10.542;2023-08-31T04:15:21;12.91;98.98
64961;SHT31;51487;52.266;10.542;2023-08-31T04:17:47;12.90;99.51
64961;SHT31;51487;52.266;10.542;2023-08-31T04:20:12;12.88;99.75
64961;SHT31;51487;52.266;10.542;2023-08-31T04:22:38;12.93;99.60
64961;SHT31;51487;52.266;10.542;2023-08-31T04:25:04;12.93;99.44
64961;SHT31;51487;52.266;10.542;2023-08-31T04:27:29;12.98;99.99
64961;SHT31;51487;52.266;10.542;2023-08-31T04:30:00;12.91;99.07
64961;SHT31;51487;52.266;10.542;2023-08-31T04:32:26;12.93;99.56
64961;SHT31;51487;52.266;10.542;2023-08-31T04:34:52;13.00;98.83
64961;SHT31;51487;52.266;10.542;2023-08-31T04:37:17;12.98;98.92
64961;SHT31;51487;52.266;10.542;2023-08-31T04:39:43;12.88;99.02
64961;SHT31;51487;52.266;10.542;2023-08-31T04:42:08;12.97;99.21
64961;SHT31;51487;52.266;10.542;2023-08-31T04:44:34;12.98;99.23
64961;SHT31;51487;52.266;10.542;2023-08-31T04:47:00;12.94;98.80
64961;SHT31;51487;52.266;10.542;2023-08-31T04:49:26;12.88;99.08
64961;SHT31;51487;52.266;10.542;2023-08-31T04:51:52;12.91;99.26
64961;SHT31;51487;52.266;10.542;2023-08-31T04:54:18;12.94;99.24
64961;SHT31;51487;52.266;10.542;2023-08-31T04:56:43;12.93;99.14
64961;SHT31;51487;52.266;10.542;2023-08-31T04:59:09;12.91;99.30
64961;SHT31;51487;52.266;10.542;2023-08-31T05:01:35;12.91;99.61
64961;SHT31;51487;52.266;10.542;2023-08-31T05:04:02;12.91;99.39
64961;SHT31;51487;52.266;10.542;2023-08-31T05:06:27;12.97;98.85
64961;SHT31;51487;52.266;10.542;2023-08-31T05:08:53;12.88;98.97
64961;SHT31;51487;52.266;10.542;2023-08-31T05:11:18;12.77;98.98
64961;SHT31;51487;52.266;10.542;2023-08-31T05:13:44;12.80;99.25
64961;SHT31;51487;52.266;10.542;2023-08-31T05:16:10;12.81;99.41
64961;SHT31;51487;52.266;10.542;2023-08-31T05:18:37;12.87;99.18
64961;SHT31;51487;52.266;10.542;2023-08-31T05:21:03;12.90;99.42
64961;SHT31;51487;52.266;10.542;2023-08-31T05:23:30;12.93;98.96
64961;SHT31;51487;52.266;10.542;2023-08-31T05:25:56;12.97;98.93
64961;SHT31;51487;52.266;10.542;2023-08-31T05:28:27;13.00;98.98
64961;SHT31;51487;52.266;10.542;2023-08-31T05:30:56;13.08;98.37
64961;SHT31;51487;52.266;10.542;2023-08-31T05:33:22;13.19;98.64
64961;SHT31;51487;52.266;10.542;2023-08-31T05:35:48;13.25;98.14
64961;SHT31;51487;52.266;10.542;2023-08-31T05:38:14;13.28;97.03
64961;SHT31;51487;52.266;10.542;2023-08-31T05:40:39;13.45;97.25
64961;SHT31;51487;52.266;10.542;2023-08-31T05:43:11;13.56;96.19
64961;SHT31;51487;52.266;10.542;2023-08-31T05:45:37;13.79;96.59
64961;SHT31;51487;52.266;10.542;2023-08-31T05:48:03;13.77;96.57
64961;SHT31;51487;52.266;10.542;2023-08-31T05:50:30;13.87;95.84
64961;SHT31;51487;52.266;10.542;2023-08-31T05:52:55;13.86;94.44
64961;SHT31;51487;52.266;10.542;2023-08-31T05:55:21;13.91;94.95
64961;SHT31;51487;52.266;10.542;2023-08-31T05:57:46;13.91;94.91
64961;SHT31;51487;52.266;10.542;2023-08-31T06:00:13;14.05;94.45
64961;SHT31;51487;52.266;10.542;2023-08-31T06:02:38;14.06;95.07
64961;SHT31;51487;52.266;10.542;2023-08-31T06:05:04;14.06;94.54
64961;SHT31;51487;52.266;10.542;2023-08-31T06:07:31;14.09;94.54
64961;SHT31;51487;52.266;10.542;2023-08-31T06:09:57;14.00;94.38
64961;SHT31;51487;52.266;10.542;2023-08-31T06:12:23;13.93;94.52
64961;SHT31;51487;52.266;10.542;2023-08-31T06:14:48;13.86;93.98
64961;SHT31;51487;52.266;10.542;2023-08-31T06:17:14;13.83;94.60
64961;SHT31;51487;52.266;10.542;2023-08-31T06:19:41;13.86;93.95
64961;SHT31;51487;52.266;10.542;2023-08-31T06:22:07;13.82;94.04
64961;SHT31;51487;52.266;10.542;2023-08-31T06:24:33;13.76;94.74
64961;SHT31;51487;52.266;10.542;2023-08-31T06:26:59;13.76;94.68
64961;SHT31;51487;52.266;10.542;2023-08-31T06:29:25;13.67;95.24
64961;SHT31;51487;52.266;10.542;2023-08-31T06:31:51;13.77;95.30
64961;SHT31;51487;52.266;10.542;2023-08-31T06:34:16;13.70;94.36
64961;SHT31;51487;52.266;10.542;2023-08-31T06:36:42;13.80;94.54
64961;SHT31;51487;52.266;10.542;2023-08-31T06:39:07;13.86;94.45
64961;SHT31;51487;52.266;10.542;2023-08-31T06:41:34;13.99;93.90
64961;SHT31;51487;52.266;10.542;2023-08-31T06:44:02;14.12;93.34
64961;SHT31;51487;52.266;10.542;2023-08-31T06:46:27;14.26;93.96
64961;SHT31;51487;52.266;10.542;2023-08-31T06:48:54;14.24;92.66
64961;SHT31;51487;52.266;10.542;2023-08-31T06:51:19;14.24;92.75
64961;SHT31;51487;52.266;10.542;2023-08-31T06:53:46;14.31;92.32
64961;SHT31;51487;52.266;10.542;2023-08-31T06:56:11;14.38;92.23
64961;SHT31;51487;52.266;10.542;2023-08-31T06:58:37;14.45;92.58
64961;SHT31;51487;52.266;10.542;2023-08-31T07:01:06;14.47;90.61
64961;SHT31;51487;52.266;10.542;2023-08-31T07:03:31;14.48;89.93
64961;SHT31;51487;52.266;10.542;2023-08-31T07:05:57;14.48;90.92
64961;SHT31;51487;52.266;10.542;2023-08-31T07:08:22;14.44;90.26
64961;SHT31;51487;52.266;10.542;2023-08-31T07:10:50;14.47;90.25
64961;SHT31;51487;52.266;10.542;2023-08-31T07:13:16;14.44;90.46
64961;SHT31;51487;52.266;10.542;2023-08-31T07:15:41;14.60;89.93
64961;SHT31;51487;52.266;10.542;2023-08-31T07:18:07;14.58;90.51
64961;SHT31;51487;52.266;10.542;2023-08-31T07:20:33;14.68;90.43
64961;SHT31;51487;52.266;10.542;2023-08-31T07:22:59;14.74;90.02
64961;SHT31;51487;52.266;10.542;2023-08-31T07:25:25;14.72;90.14
64961;SHT31;51487;52.266;10.542;2023-08-31T07:27:50;14.71;90.10
64961;SHT31;51487;52.266;10.542;2023-08-31T07:30:16;14.79;89.38
64961;SHT31;51487;52.266;10.542;2023-08-31T07:32:41;14.76;89.95
64961;SHT31;51487;52.266;10.542;2023-08-31T07:35:07;14.88;89.24
64961;SHT31;51487;52.266;10.542;2023-08-31T07:37:33;14.86;88.80
64961;SHT31;51487;52.266;10.542;2023-08-31T07:39:59;14.98;86.95
64961;SHT31;51487;52.266;10.542;2023-08-31T07:42:25;15.07;87.24
64961;SHT31;51487;52.266;10.542;2023-08-31T07:44:50;15.09;86.48
64961;SHT31;51487;52.266;10.542;2023-08-31T07:47:16;15.06;85.89
64961;SHT31;51487;52.266;10.542;2023-08-31T07:49:41;15.10;85.83
64961;SHT31;51487;52.266;10.542;2023-08-31T07:52:07;15.37;86.28
64961;SHT31;51487;52.266;10.542;2023-08-31T07:54:33;15.54;84.91
64961;SHT31;51487;52.266;10.542;2023-08-31T07:57:00;15.70;82.80
64961;SHT31;51487;52.266;10.542;2023-08-31T07:59:25;15.70;83.28
64961;SHT31;51487;52.266;10.542;2023-08-31T08:01:51;15.70;82.80
64961;SHT31;51487;52.266;10.542;2023-08-31T08:04:16;15.80;85.20
64961;SHT31;51487;52.266;10.542;2023-08-31T08:06:44;15.80;82.79
64961;SHT31;51487;52.266;10.542;2023-08-31T08:09:10;15.81;83.22
64961;SHT31;51487;52.266;10.542;2023-08-31T08:11:35;15.87;83.76
64961;SHT31;51487;52.266;10.542;2023-08-31T08:14:01;15.91;84.45
64961;SHT31;51487;52.266;10.542;2023-08-31T08:16:27;15.98;84.32
64961;SHT31;51487;52.266;10.542;2023-08-31T08:18:52;16.05;82.48
64961;SHT31;51487;52.266;10.542;2023-08-31T08:21:18;15.98;82.98
64961;SHT31;51487;52.266;10.542;2023-08-31T08:23:43;15.95;82.96
64961;SHT31;51487;52.266;10.542;2023-08-31T08:26:09;15.92;83.02
64961;SHT31;51487;52.266;10.542;2023-08-31T08:28:34;15.87;82.24
64961;SHT31;51487;52.266;10.542;2023-08-31T08:31:01;15.94;82.34
64961;SHT31;51487;52.266;10.542;2023-08-31T08:33:31;15.95;82.47
64961;SHT31;51487;52.266;10.542;2023-08-31T08:35:57;16.15;81.79
64961;SHT31;51487;52.266;10.542;2023-08-31T08:38:23;16.36;82.07
64961;SHT31;51487;52.266;10.542;2023-08-31T08:40:48;16.57;82.57
64961;SHT31;51487;52.266;10.542;2023-08-31T08:43:14;16.71;81.59
64961;SHT31;51487;52.266;10.542;2023-08-31T08:45:40;16.66;82.10
64961;SHT31;51487;52.266;10.542;2023-08-31T08:48:08;16.67;81.08
64961;SHT31;51487;52.266;10.542;2023-08-31T08:50:36;17.00;80.79
64961;SHT31;51487;52.266;10.542;2023-08-31T08:53:03;16.80;78.84
64961;SHT31;51487;52.266;10.542;2023-08-31T08:55:29;16.90;79.00
64961;SHT31;51487;52.266;10.542;2023-08-31T08:57:57;16.79;80.08
64961;SHT31;51487;52.266;10.542;2023-08-31T09:00:23;16.81;78.07
64961;SHT31;51487;52.266;10.542;2023-08-31T09:02:48;16.98;76.70
64961;SHT31;51487;52.266;10.542;2023-08-31T09:05:14;16.95;79.04
64961;SHT31;51487;52.266;10.542;2023-08-31T09:08:05;17.00;78.29
64961;SHT31;51487;52.266;10.542;2023-08-31T09:10:39;16.94;76.87
64961;SHT31;51487;52.266;10.542;2023-08-31T09:13:15;17.11;79.24
64961;SHT31;51487;52.266;10.542;2023-08-31T09:15:46;17.11;77.42
64961;SHT31;51487;52.266;10.542;2023-08-31T09:18:30;17.04;76.95
64961;SHT31;51487;52.266;10.542;2023-08-31T09:21:01;16.84;77.89
64961;SHT31;51487;52.266;10.542;2023-08-31T09:23:27;16.61;77.85
64961;SHT31;51487;52.266;10.542;2023-08-31T09:25:55;16.57;80.45
64961;SHT31;51487;52.266;10.542;2023-08-31T09:28:24;16.64;79.68
64961;SHT31;51487;52.266;10.542;2023-08-31T09:30:52;16.66;78.70
64961;SHT31;51487;52.266;10.542;2023-08-31T09:33:20;16.85;79.31
64961;SHT31;51487;52.266;10.542;2023-08-31T09:35:59;16.87;78.33
64961;SHT31;51487;52.266;10.542;2023-08-31T09:38:26;16.87;77.60
64961;SHT31;51487;52.266;10.542;2023-08-31T09:41:03;17.06;79.96
64961;SHT31;51487;52.266;10.542;2023-08-31T09:43:29;16.94;78.60
64961;SHT31;51487;52.266;10.542;2023-08-31T09:45:55;17.00;78.21
64961;SHT31;51487;52.266;10.542;2023-08-31T09:48:23;16.81;77.90
64961;SHT31;51487;52.266;10.542;2023-08-31T09:50:51;17.03;77.27
64961;SHT31;51487;52.266;10.542;2023-08-31T09:53:20;17.01;79.68
64961;SHT31;51487;52.266;10.542;2023-08-31T09:55:47;18.30;86.27
64961;SHT31;51487;52.266;10.542;2023-08-31T09:58:22;19.24;81.25
64961;SHT31;51487;52.266;10.542;2023-08-31T10:00:50;19.74;77.16
64961;SHT31;51487;52.266;10.542;2023-08-31T10:03:16;20.04;74.49
64961;SHT31;51487;52.266;10.542;2023-08-31T10:05:48;20.39;74.34
64961;SHT31;51487;52.266;10.542;2023-08-31T10:08:15;20.15;73.02
64961;SHT31;51487;52.266;10.542;2023-08-31T10:10:41;20.11;72.74
64961;SHT31;51487;52.266;10.542;2023-08-31T10:13:07;20.47;72.88
64961;SHT31;51487;52.266;10.542;2023-08-31T10:15:35;20.26;70.97
64961;SHT31;51487;52.266;10.542;2023-08-31T10:18:03;20.47;70.69
64961;SHT31;51487;52.266;10.542;2023-08-31T10:20:30;20.63;69.28
64961;SHT31;51487;52.266;10.542;2023-08-31T10:23:03;20.73;69.25
64961;SHT31;51487;52.266;10.542;2023-08-31T10:28:27;20.67;68.80
64961;SHT31;51487;52.266;10.542;2023-08-31T10:31:10;20.52;68.73
64961;SHT31;51487;52.266;10.542;2023-08-31T10:33:56;20.15;67.34
64961;SHT31;51487;52.266;10.542;2023-08-31T10:36:38;20.15;69.54
64961;SHT31;51487;52.266;10.542;2023-08-31T10:39:16;20.23;68.77
64961;SHT31;51487;52.266;10.542;2023-08-31T10:41:53;20.39;68.24
64961;SHT31;51487;52.266;10.542;2023-08-31T10:44:21;20.44;67.71
64961;SHT31;51487;52.266;10.542;2023-08-31T10:46:47;20.46;68.33
64961;SHT31;51487;52.266;10.542;2023-08-31T10:49:15;20.49;67.38
64961;SHT31;51487;52.266;10.542;2023-08-31T10:51:48;20.52;67.24
64961;SHT31;51487;52.266;10.542;2023-08-31T10:54:26;20.52;67.48
64961;SHT31;51487;52.266;10.542;2023-08-31T10:59:41;20.01;68.49
64961;SHT31;51487;52.266;10.542;2023-08-31T11:02:07;19.05;68.07
64961;SHT31;51487;52.266;10.542;2023-08-31T11:05:00;18.72;69.93
64961;SHT31;51487;52.266;10.542;2023-08-31T11:07:29;19.06;70.86
64961;SHT31;51487;52.266;10.542;2023-08-31T11:10:19;19.40;69.42
64961;SHT31;51487;52.266;10.542;2023-08-31T11:12:51;19.44;68.53
64961;SHT31;51487;52.266;10.542;2023-08-31T11:15:24;19.58;68.66
64961;SHT31;51487;52.266;10.542;2023-08-31T11:17:53;19.78;68.64
64961;SHT31;51487;52.266;10.542;2023-08-31T11:20:21;19.94;68.47
64961;SHT31;51487;52.266;10.542;2023-08-31T11:22:50;19.71;68.53
64961;SHT31;51487;52.266;10.542;2023-08-31T11:25:19;19.53;69.59
64961;SHT31;51487;52.266;10.542;2023-08-31T11:28:06;19.53;69.79
64961;SHT31;51487;52.266;10.542;2023-08-31T11:30:33;19.47;69.51
64961;SHT31;51487;52.266;10.542;2023-08-31T11:33:05;19.28;70.09
64961;SHT31;51487;52.266;10.542;2023-08-31T11:35:35;19.30;70.19
64961;SHT31;51487;52.266;10.542;2023-08-31T11:38:02;19.41;69.83
64961;SHT31;51487;52.266;10.542;2023-08-31T11:40:29;19.43;67.84
64961;SHT31;51487;52.266;10.542;2023-08-31T11:42:57;19.55;69.92
64961;SHT31;51487;52.266;10.542;2023-08-31T11:45:23;19.51;69.73
64961;SHT31;51487;52.266;10.542;2023-08-31T11:47:50;19.77;69.95
64961;SHT31;51487;52.266;10.542;2023-08-31T11:50:17;19.36;68.57
64961;SHT31;51487;52.266;10.542;2023-08-31T11:52:44;19.30;69.35
64961;SHT31;51487;52.266;10.542;2023-08-31T11:55:15;19.30;70.64
64961;SHT31;51487;52.266;10.542;2023-08-31T11:57:51;19.53;71.31
64961;SHT31;51487;52.266;10.542;2023-08-31T12:00:19;19.53;70.55
64961;SHT31;51487;52.266;10.542;2023-08-31T12:02:45;19.36;71.01
64961;SHT31;51487;52.266;10.542;2023-08-31T12:05:14;19.47;71.62
64961;SHT31;51487;52.266;10.542;2023-08-31T12:07:40;19.70;73.82
64961;SHT31;51487;52.266;10.542;2023-08-31T12:10:08;19.67;70.90
64961;SHT31;51487;52.266;10.542;2023-08-31T12:12:34;19.81;71.94
64961;SHT31;51487;52.266;10.542;2023-08-31T12:15:02;18.84;70.91
64961;SHT31;51487;52.266;10.542;2023-08-31T12:17:30;18.54;73.36
64961;SHT31;51487;52.266;10.542;2023-08-31T12:20:04;18.40;72.66
64961;SHT31;51487;52.266;10.542;2023-08-31T12:22:30;18.28;72.49
64961;SHT31;51487;52.266;10.542;2023-08-31T12:24:56;18.31;72.18
64961;SHT31;51487;52.266;10.542;2023-08-31T12:27:22;18.24;71.49
64961;SHT31;51487;52.266;10.542;2023-08-31T12:29:47;18.34;71.41
64961;SHT31;51487;52.266;10.542;2023-08-31T12:32:13;18.27;69.90
64961;SHT31;51487;52.266;10.542;2023-08-31T12:34:39;18.26;70.71
64961;SHT31;51487;52.266;10.542;2023-08-31T12:37:05;18.38;70.64
64961;SHT31;51487;52.266;10.542;2023-08-31T12:39:31;18.44;71.69
64961;SHT31;51487;52.266;10.542;2023-08-31T12:41:57;19.15;77.41
64961;SHT31;51487;52.266;10.542;2023-08-31T12:44:23;19.77;74.58
64961;SHT31;51487;52.266;10.542;2023-08-31T12:46:51;19.64;66.41
64961;SHT31;51487;52.266;10.542;2023-08-31T12:49:17;19.38;66.76
64961;SHT31;51487;52.266;10.542;2023-08-31T12:51:43;19.07;68.19
64961;SHT31;51487;52.266;10.542;2023-08-31T12:54:09;18.99;68.74
64961;SHT31;51487;52.266;10.542;2023-08-31T12:56:34;19.05;70.18
64961;SHT31;51487;52.266;10.542;2023-08-31T12:59:00;19.13;70.12
64961;SHT31;51487;52.266;10.542;2023-08-31T13:01:26;19.09;69.77
64961;SHT31;51487;52.266;10.542;2023-08-31T13:03:51;19.22;68.77
64961;SHT31;51487;52.266;10.542;2023-08-31T13:06:18;19.22;69.96
64961;SHT31;51487;52.266;10.542;2023-08-31T13:08:45;19.30;69.41
64961;SHT31;51487;52.266;10.542;2023-08-31T13:11:11;19.34;70.03
64961;SHT31;51487;52.266;10.542;2023-08-31T13:13:38;19.31;68.50
64961;SHT31;51487;52.266;10.542;2023-08-31T13:16:04;19.30;66.59
64961;SHT31;51487;52.266;10.542;2023-08-31T13:18:30;19.40;67.24
64961;SHT31;51487;52.266;10.542;2023-08-31T13:20:56;19.44;68.13
64961;SHT31;51487;52.266;10.542;2023-08-31T13:23:22;19.41;66.96
64961;SHT31;51487;52.266;10.542;2023-08-31T13:25:49;19.51;68.35
64961;SHT31;51487;52.266;10.542;2023-08-31T13:28:15;19.37;69.17
64961;SHT31;51487;52.266;10.542;2023-08-31T13:30:41;19.38;67.28
64961;SHT31;51487;52.266;10.542;2023-08-31T13:33:08;19.07;65.85
64961;SHT31;51487;52.266;10.542;2023-08-31T13:35:34;19.06;65.48
64961;SHT31;51487;52.266;10.542;2023-08-31T13:38:01;18.86;66.22
64961;SHT31;51487;52.266;10.542;2023-08-31T13:40:28;18.61;67.56
64961;SHT31;51487;52.266;10.542;2023-08-31T13:42:59;18.48;69.49
64961;SHT31;51487;52.266;10.542;2023-08-31T13:45:31;18.51;71.01
64961;SHT31;51487;52.266;10.542;2023-08-31T13:48:01;18.59;71.14
64961;SHT31;51487;52.266;10.542;2023-08-31T13:50:27;18.62;71.27
64961;SHT31;51487;52.266;10.542;2023-08-31T13:52:53;18.76;70.12
64961;SHT31;51487;52.266;10.542;2023-08-31T13:55:19;18.68;69.97
64961;SHT31;51487;52.266;10.542;2023-08-31T13:57:45;18.68;69.71
64961;SHT31;51487;52.266;10.542;2023-08-31T14:00:11;18.55;69.91
64961;SHT31;51487;52.266;10.542;2023-08-31T14:02:38;18.55;69.54
64961;SHT31;51487;52.266;10.542;2023-08-31T14:05:05;18.44;69.31
64961;SHT31;51487;52.266;10.542;2023-08-31T14:07:34;18.28;70.82
64961;SHT31;51487;52.266;10.542;2023-08-31T14:10:02;18.33;70.34
64961;SHT31;51487;52.266;10.542;2023-08-31T14:12:31;18.45;69.59
64961;SHT31;51487;52.266;10.542;2023-08-31T14:14:57;18.61;69.27
64961;SHT31;51487;52.266;10.542;2023-08-31T14:17:23;18.54;69.52
64961;SHT31;51487;52.266;10.542;2023-08-31T14:19:49;18.48;70.21
64961;SHT31;51487;52.266;10.542;2023-08-31T14:22:14;18.41;71.22
64961;SHT31;51487;52.266;10.542;2023-08-31T14:24:40;18.30;71.80
64961;SHT31;51487;52.266;10.542;2023-08-31T14:27:06;18.11;73.82
64961;SHT31;51487;52.266;10.542;2023-08-31T14:29:31;18.04;72.98
64961;SHT31;51487;52.266;10.542;2023-08-31T14:31:57;17.91;73.35
64961;SHT31;51487;52.266;10.542;2023-08-31T14:34:23;18.03;72.54
64961;SHT31;51487;52.266;10.542;2023-08-31T14:36:50;18.00;68.89
64961;SHT31;51487;52.266;10.542;2023-08-31T14:39:16;17.90;69.95
64961;SHT31;51487;52.266;10.542;2023-08-31T14:41:42;17.70;70.40
64961;SHT31;51487;52.266;10.542;2023-08-31T14:44:07;17.58;71.33
64961;SHT31;51487;52.266;10.542;2023-08-31T14:46:33;17.56;71.81
64961;SHT31;51487;52.266;10.542;2023-08-31T14:48:59;17.52;72.36
64961;SHT31;51487;52.266;10.542;2023-08-31T14:51:24;17.48;73.26
64961;SHT31;51487;52.266;10.542;2023-08-31T14:53:50;17.29;74.36
64961;SHT31;51487;52.266;10.542;2023-08-31T14:56:15;17.19;74.76
64961;SHT31;51487;52.266;10.542;2023-08-31T14:58:41;17.03;75.29
64961;SHT31;51487;52.266;10.542;2023-08-31T15:01:06;17.11;75.56
64961;SHT31;51487;52.266;10.542;2023-08-31T15:03:32;17.15;75.48
64961;SHT31;51487;52.266;10.542;2023-08-31T15:05:57;17.17;75.18
64961;SHT31;51487;52.266;10.542;2023-08-31T15:08:37;17.36;74.58
64961;SHT31;51487;52.266;10.542;2023-08-31T15:11:02;17.55;74.28
64961;SHT31;51487;52.266;10.542;2023-08-31T15:13:28;17.68;73.62
64961;SHT31;51487;52.266;10.542;2023-08-31T15:15:54;17.62;73.22
64961;SHT31;51487;52.266;10.542;2023-08-31T15:18:19;17.15;73.10
64961;SHT31;51487;52.266;10.542;2023-08-31T15:20:45;17.25;72.92
64961;SHT31;51487;52.266;10.542;2023-08-31T15:23:10;17.24;72.20
64961;SHT31;51487;52.266;10.542;2023-08-31T15:25:36;17.04;72.49